Time;durP1;ratioP1;P1;durP2;ratioP2;P2;SDS_P1;SDS_P2;PMS_P1;PMS_P2;Temp;Humidity;BMP_temperature;BMP_pressure;BME280_temperature;BME280_humidity;BME280_pressure;Samples;Min_cycle;Max_cycle;Signal;HPM_P1;HPM_P2
2021/01/06 00:00:49;;;;;;;26.03;16.90;;;;;;;2.16;71.48;94887.41;5091181;28;20208;-78
2021/01/06 00:03:18;;;;;;;29.47;16.70;;;;;;;2.21;71.23;94892.09;5092630;28;20216;-79
2021/01/06 00:05:45;;;;;;;26.23;17.93;;;;;;;2.22;71.06;94888.59;5089968;28;20660;-81
2021/01/06 00:08:11;;;;;;;27.07;15.83;;;;;;;2.19;70.95;94892.22;5073757;28;20189;-80
2021/01/06 00:10:38;;;;;;;25.23;16.37;;;;;;;2.22;70.51;94883.53;5092581;28;20200;-80
2021/01/06 00:13:05;;;;;;;26.17;17.13;;;;;;;2.19;70.78;94882.06;5073294;28;20294;-81
2021/01/06 00:15:33;;;;;;;25.83;16.43;;;;;;;2.13;70.87;94889.44;5084774;28;20196;-80
2021/01/06 00:17:59;;;;;;;29.57;17.33;;;;;;;2.08;70.96;94892.44;5092709;28;20200;-79
2021/01/06 00:20:27;;;;;;;27.10;16.73;;;;;;;2.14;70.80;94885.97;5081382;28;20201;-80
2021/01/06 00:22:53;;;;;;;32.27;18.37;;;;;;;2.17;70.97;94881.41;5087294;28;20196;-80
2021/01/06 00:25:22;;;;;;;29.77;16.17;;;;;;;2.14;71.22;94879.16;5092271;28;20232;-79
2021/01/06 00:27:49;;;;;;;29.77;18.27;;;;;;;2.19;70.63;94887.16;5083624;28;20280;-80
2021/01/06 00:30:21;;;;;;;31.80;17.73;;;;;;;2.16;70.81;94877.25;5072342;28;20197;-79
2021/01/06 00:32:47;;;;;;;32.17;18.27;;;;;;;2.16;70.90;94884.88;5088847;28;20212;-80
2021/01/06 00:35:13;;;;;;;34.53;19.63;;;;;;;2.18;70.99;94885.53;5076260;28;20203;-80
2021/01/06 00:37:39;;;;;;;33.57;19.53;;;;;;;2.23;70.71;94883.38;5092289;28;20573;-79
2021/01/06 00:40:07;;;;;;;29.87;17.97;;;;;;;2.22;70.58;94874.16;5091310;28;20192;-80
2021/01/06 00:42:35;;;;;;;32.03;19.33;;;;;;;2.14;70.60;94876.59;5092966;28;20231;-79
2021/01/06 00:45:04;;;;;;;33.33;18.57;;;;;;;2.12;71.00;94875.19;5088990;28;20193;-81
2021/01/06 00:47:30;;;;;;;38.13;20.00;;;;;;;2.15;70.52;94872.31;5072006;28;20201;-80
2021/01/06 00:49:56;;;;;;;30.13;18.43;;;;;;;2.16;70.39;94873.94;5073190;28;20273;-80
2021/01/06 00:52:22;;;;;;;31.80;18.70;;;;;;;2.18;70.27;94870.31;5092598;28;20200;-79
2021/01/06 00:54:48;;;;;;;30.40;17.23;;;;;;;2.21;71.50;94881.94;5090033;28;20228;-79
2021/01/06 00:57:14;;;;;;;32.63;18.07;;;;;;;2.15;71.07;94873.13;5086675;28;20200;-80
2021/01/06 00:59:40;;;;;;;31.90;18.40;;;;;;;2.14;70.54;94870.72;5071434;28;20197;-79
2021/01/06 01:02:07;;;;;;;35.33;19.07;;;;;;;2.10;70.50;94875.31;5091218;28;20216;-79
2021/01/06 01:04:33;;;;;;;33.47;18.83;;;;;;;2.17;70.58;94878.88;5091370;28;20224;-80
2021/01/06 01:07:01;;;;;;;30.80;18.90;;;;;;;2.16;70.65;94874.72;5073232;28;20832;-80
2021/01/06 01:09:28;;;;;;;33.87;19.97;;;;;;;2.18;70.58;94866.97;5080819;28;20270;-80
2021/01/06 01:11:54;;;;;;;32.93;19.13;;;;;;;2.16;70.61;94868.84;5088776;28;20686;-79
2021/01/06 01:14:19;;;;;;;34.80;20.30;;;;;;;2.14;70.43;94869.00;5076013;28;20307;-80
2021/01/06 01:16:46;;;;;;;33.50;19.70;;;;;;;2.11;71.11;94860.88;5071840;28;20222;-80
2021/01/06 01:19:13;;;;;;;34.93;20.13;;;;;;;2.10;71.12;94861.81;5083857;28;20271;-80
2021/01/06 01:21:39;;;;;;;29.87;18.90;;;;;;;2.06;71.69;94862.09;5075525;28;20216;-80
2021/01/06 01:24:06;;;;;;;33.00;19.43;;;;;;;1.97;72.33;94862.94;5082211;28;20227;-80
2021/01/06 01:26:32;;;;;;;35.90;20.20;;;;;;;2.00;72.80;94854.25;5091240;28;20202;-80
2021/01/06 01:28:58;;;;;;;33.00;19.70;;;;;;;2.00;72.38;94852.50;5080832;28;20606;-79
2021/01/06 01:31:31;;;;;;;34.07;18.90;;;;;;;2.05;72.42;94855.44;5084393;28;20188;-80
2021/01/06 01:33:56;;;;;;;34.00;19.17;;;;;;;2.10;72.20;94855.00;5081132;28;20221;-79
2021/01/06 01:36:23;;;;;;;33.80;19.50;;;;;;;2.13;72.51;94844.53;5070346;28;20668;-80
2021/01/06 01:38:49;;;;;;;34.30;20.07;;;;;;;2.12;72.11;94849.78;5077994;28;20188;-79
2021/01/06 01:41:22;;;;;;;34.13;19.30;;;;;;;2.08;72.40;94854.34;5078302;28;20227;-80
2021/01/06 01:43:48;;;;;;;33.97;18.97;;;;;;;2.03;72.84;94852.22;5070456;28;20220;-80
2021/01/06 01:46:45;;;;;;;38.70;20.80;;;;;;;2.02;73.84;94849.84;5070754;28;20220;-79
2021/01/06 01:49:17;;;;;;;32.23;18.73;;;;;;;2.06;72.96;94851.16;5080003;28;20192;-79
2021/01/06 01:51:52;;;;;;;35.77;19.47;;;;;;;2.03;72.58;94859.03;5075799;28;20238;-78
2021/01/06 01:54:19;;;;;;;30.70;18.50;;;;;;;2.00;73.38;94849.16;5080564;28;20235;-80
2021/01/06 01:56:51;;;;;;;36.33;19.13;;;;;;;2.03;73.01;94857.31;5091112;28;20215;-79
2021/01/06 01:59:23;;;;;;;30.13;17.87;;;;;;;2.03;72.91;94854.78;5089258;28;20850;-80
2021/01/06 02:01:51;;;;;;;31.50;18.43;;;;;;;2.05;73.02;94854.63;5074268;28;20216;-79
2021/01/06 02:04:25;;;;;;;36.93;20.90;;;;;;;2.05;73.42;94849.56;5079180;28;20246;-79
2021/01/06 02:06:58;;;;;;;35.27;19.07;;;;;;;2.06;73.47;94846.06;5090684;28;20204;-80
2021/01/06 02:09:30;;;;;;;33.73;20.07;;;;;;;2.05;73.64;94847.00;5080614;28;20193;-79
2021/01/06 02:12:07;;;;;;;34.93;19.57;;;;;;;2.07;74.02;94837.53;5086832;28;20564;-80
2021/01/06 02:14:39;;;;;;;39.53;20.30;;;;;;;2.10;74.22;94838.97;5080403;28;20304;-80
2021/01/06 02:17:10;;;;;;;33.90;20.70;;;;;;;2.04;74.11;94843.69;5070464;28;20212;-80
2021/01/06 02:19:41;;;;;;;36.20;19.70;;;;;;;2.01;74.45;94843.94;5079903;28;20403;-79
2021/01/06 02:22:10;;;;;;;36.07;20.57;;;;;;;2.06;74.70;94841.78;5072640;28;20739;-80
2021/01/06 02:24:37;;;;;;;30.93;19.63;;;;;;;2.10;74.36;94836.44;5070900;28;20220;-80
2021/01/06 02:27:06;;;;;;;31.73;19.30;;;;;;;2.07;74.83;94835.78;5070533;28;20205;-79
2021/01/06 02:29:33;;;;;;;37.93;21.40;;;;;;;2.05;74.75;94836.84;5087026;28;20199;-80
2021/01/06 02:32:00;;;;;;;35.43;19.83;;;;;;;2.04;75.46;94840.34;5073700;28;20692;-80
2021/01/06 02:34:26;;;;;;;36.27;20.47;;;;;;;2.05;75.60;94830.03;5070037;28;20216;-80
2021/01/06 02:36:53;;;;;;;40.47;21.07;;;;;;;2.05;75.46;94834.31;5084201;28;20231;-79
2021/01/06 02:39:20;;;;;;;33.13;20.00;;;;;;;2.06;75.71;94833.38;5090235;28;20200;-79
2021/01/06 02:41:48;;;;;;;37.47;21.27;;;;;;;2.02;76.51;94832.06;5075388;28;20220;-79
2021/01/06 02:44:16;;;;;;;37.33;21.10;;;;;;;2.00;77.00;94842.34;5069747;28;20224;-79
2021/01/06 02:46:42;;;;;;;38.63;21.97;;;;;;;2.03;76.98;94844.63;5072983;28;20193;-79
2021/01/06 02:49:09;;;;;;;34.37;19.63;;;;;;;2.04;76.90;94843.69;5075235;28;20216;-80
2021/01/06 02:51:40;;;;;;;38.47;21.23;;;;;;;2.05;76.74;94831.78;5086467;28;20184;-79
2021/01/06 02:54:10;;;;;;;39.67;21.30;;;;;;;2.09;76.73;94833.09;5082445;28;20250;-79
2021/01/06 02:56:40;;;;;;;37.83;21.70;;;;;;;2.07;76.25;94837.53;5073264;28;20676;-79
2021/01/06 02:59:10;;;;;;;34.97;21.83;;;;;;;2.05;76.58;94837.66;5084728;28;20192;-80
2021/01/06 03:01:39;;;;;;;37.30;21.10;;;;;;;2.05;76.29;94836.84;5080785;28;20213;-78
2021/01/06 03:04:09;;;;;;;34.57;20.67;;;;;;;2.04;76.41;94822.56;5083521;28;20223;-80
2021/01/06 03:06:41;;;;;;;36.83;21.03;;;;;;;2.05;77.02;94824.16;5093790;28;20590;-78
2021/01/06 03:09:20;;;;;;;40.17;21.70;;;;;;;2.03;77.27;94818.44;5083356;28;20200;-80
2021/01/06 03:11:47;;;;;;;41.90;22.23;;;;;;;1.98;78.07;94831.53;5073272;28;20193;-79
2021/01/06 03:14:13;;;;;;;39.47;21.23;;;;;;;1.99;77.64;94828.06;5092543;28;20215;-80
2021/01/06 03:16:39;;;;;;;40.23;22.97;;;;;;;1.97;77.04;94832.47;5094041;28;20843;-80
2021/01/06 03:19:06;;;;;;;37.27;21.43;;;;;;;1.95;77.03;94818.34;5075437;28;20193;-80
2021/01/06 03:21:32;;;;;;;38.67;21.67;;;;;;;1.94;77.15;94821.81;5083964;28;20227;-80
2021/01/06 03:24:01;;;;;;;38.17;20.07;;;;;;;1.94;77.30;94822.59;5093338;28;20216;-80
2021/01/06 03:26:27;;;;;;;36.30;20.37;;;;;;;1.95;77.25;94825.94;5083205;28;20201;-79
2021/01/06 03:28:55;;;;;;;41.50;22.13;;;;;;;1.95;77.08;94825.94;5075641;28;20208;-80
2021/01/06 03:31:27;;;;;;;35.77;21.10;;;;;;;1.91;77.26;94819.59;5083444;28;20197;-81
2021/01/06 03:33:59;;;;;;;38.00;21.47;;;;;;;1.91;76.99;94815.31;5074994;28;20224;-79
2021/01/06 03:36:31;;;;;;;36.33;20.50;;;;;;;1.93;77.02;94817.66;5082625;28;20193;-79
2021/01/06 03:39:02;;;;;;;34.67;19.80;;;;;;;1.96;76.68;94820.72;5074679;28;20208;-79
2021/01/06 03:41:29;;;;;;;35.23;20.90;;;;;;;1.95;76.66;94818.34;5082095;28;20224;-79
2021/01/06 03:44:03;;;;;;;35.23;20.60;;;;;;;1.89;77.38;94817.19;5073919;28;20286;-80
2021/01/06 03:46:34;;;;;;;38.23;20.63;;;;;;;1.89;77.41;94814.66;5093200;28;20447;-80
2021/01/06 03:49:06;;;;;;;39.47;21.23;;;;;;;1.86;77.62;94816.66;5091429;28;20635;-80
2021/01/06 03:51:38;;;;;;;35.47;20.03;;;;;;;1.86;77.34;94816.66;5082220;28;20250;-79
2021/01/06 03:54:20;;;;;;;33.13;19.33;;;;;;;1.89;77.17;94803.69;5082800;28;20220;-79
2021/01/06 03:56:46;;;;;;;37.03;20.23;;;;;;;1.85;77.28;94812.53;5092033;28;20204;-79
2021/01/06 03:59:18;;;;;;;33.23;19.50;;;;;;;1.84;76.87;94803.31;5072018;28;20211;-80
2021/01/06 04:01:56;;;;;;;32.53;20.43;;;;;;;1.84;77.01;94808.38;5081680;28;20212;-80
2021/01/06 04:04:27;;;;;;;36.90;20.67;;;;;;;1.84;77.24;94809.19;5072222;28;20251;-79
2021/01/06 04:06:55;;;;;;;34.17;20.17;;;;;;;1.80;77.22;94800.25;5084683;28;20564;-80
2021/01/06 04:09:28;;;;;;;33.90;20.40;;;;;;;1.85;77.24;94798.09;5092522;28;20242;-80
2021/01/06 04:12:02;;;;;;;30.57;19.80;;;;;;;1.76;77.14;94803.22;5078453;28;20200;-78
2021/01/06 04:14:29;;;;;;;32.60;20.17;;;;;;;1.81;77.21;94813.75;5080529;28;20211;-78
2021/01/06 04:16:55;;;;;;;33.20;18.93;;;;;;;1.79;76.94;94795.31;5081968;28;20782;-81
2021/01/06 04:19:21;;;;;;;32.73;19.97;;;;;;;1.76;76.99;94800.69;5078476;28;20279;-80
2021/01/06 04:21:47;;;;;;;34.07;20.47;;;;;;;1.78;77.29;94788.66;5080545;28;20277;-80
2021/01/06 04:24:13;;;;;;;34.60;19.70;;;;;;;1.72;77.80;94795.91;5077066;28;20223;-79
2021/01/06 04:26:39;;;;;;;33.77;19.23;;;;;;;1.76;77.42;94798.94;5092250;28;20614;-79
2021/01/06 04:29:05;;;;;;;33.43;19.80;;;;;;;1.76;77.31;94785.44;5088331;28;20743;-79
2021/01/06 04:31:32;;;;;;;34.93;20.10;;;;;;;1.80;77.33;94790.09;5077295;28;20196;-79
2021/01/06 04:33:58;;;;;;;32.80;19.87;;;;;;;1.77;76.97;94792.94;5091762;28;20227;-80
2021/01/06 04:36:26;;;;;;;34.73;19.27;;;;;;;1.73;77.64;94792.41;5090652;28;20200;-80
2021/01/06 04:38:55;;;;;;;36.77;19.73;;;;;;;1.73;77.77;94794.19;5071754;28;20258;-79
2021/01/06 04:41:41;;;;;;;31.10;18.83;;;;;;;1.68;77.91;94784.44;5079020;28;20208;-80
2021/01/06 04:44:24;;;;;;;35.43;19.70;;;;;;;1.67;77.54;94787.91;5091770;28;20791;-80
2021/01/06 04:47:09;;;;;;;36.53;20.90;;;;;;;1.65;77.79;94794.88;5091120;28;20214;-79
2021/01/06 04:49:51;;;;;;;33.50;20.47;;;;;;;1.62;77.82;94797.69;5092680;28;20207;-80
2021/01/06 04:52:35;;;;;;;33.43;19.50;;;;;;;1.68;77.55;94789.53;5091214;28;20188;-80
2021/01/06 04:55:16;;;;;;;34.70;21.03;;;;;;;1.65;77.68;94794.06;5089965;28;20309;-80
2021/01/06 04:57:53;;;;;;;32.57;18.60;;;;;;;1.55;78.47;94790.78;5071495;28;20208;-79
2021/01/06 05:00:31;;;;;;;34.37;19.43;;;;;;;1.58;78.17;94798.91;5074153;28;20286;-80
2021/01/06 05:03:20;;;;;;;33.73;19.20;;;;;;;1.52;78.40;94789.34;5091331;28;20223;-79
2021/01/06 05:05:54;;;;;;;30.63;18.60;;;;;;;1.46;78.52;94792.44;5090057;28;20365;-79
2021/01/06 05:08:27;;;;;;;33.83;19.13;;;;;;;1.39;79.60;94794.72;5091248;28;20282;-80
2021/01/06 05:10:59;;;;;;;30.80;18.90;;;;;;;1.40;79.25;94790.44;5083007;28;20203;-80
2021/01/06 05:13:30;;;;;;;33.77;19.47;;;;;;;1.30;79.91;94787.16;5091435;28;20220;-80
2021/01/06 05:15:59;;;;;;;32.33;18.47;;;;;;;1.25;80.14;94792.66;5076292;28;20204;-81
2021/01/06 05:18:27;;;;;;;35.37;20.57;;;;;;;1.33;79.65;94790.22;5071123;28;20208;-79
2021/01/06 05:20:54;;;;;;;35.87;20.07;;;;;;;1.31;80.08;94793.84;5071818;28;20207;-78
2021/01/06 05:23:23;;;;;;;36.97;20.30;;;;;;;1.28;80.53;94789.84;5088126;28;20215;-80
2021/01/06 05:25:49;;;;;;;33.50;19.57;;;;;;;1.35;80.35;94790.84;5078363;28;20204;-81
2021/01/06 05:28:18;;;;;;;34.33;19.87;;;;;;;1.35;80.96;94795.13;5070969;28;20196;-80
2021/01/06 05:30:46;;;;;;;32.97;20.23;;;;;;;1.41;80.57;94793.78;5082294;28;20199;-80
2021/01/06 05:33:17;;;;;;;35.73;20.30;;;;;;;1.48;79.85;94787.22;5074516;28;20254;-80
2021/01/06 05:35:48;;;;;;;37.40;20.30;;;;;;;1.44;80.76;94796.03;5071812;28;20197;-80
2021/01/06 05:38:14;;;;;;;32.80;19.53;;;;;;;1.42;80.23;94803.78;5070749;28;20616;-80
2021/01/06 05:40:43;;;;;;;33.47;19.30;;;;;;;1.41;81.28;94804.72;5080298;28;20188;-81
2021/01/06 05:43:42;;;;;;;29.80;18.57;;;;;;;1.40;81.33;94803.13;5075441;28;20217;-80
2021/01/06 05:46:25;;;;;;;32.07;18.53;;;;;;;1.37;81.40;94801.66;5083172;28;20196;-80
2021/01/06 05:48:56;;;;;;;30.03;18.60;;;;;;;1.32;81.58;94808.09;5075205;28;20197;-79
2021/01/06 05:51:30;;;;;;;33.27;18.90;;;;;;;1.34;81.64;94804.50;5084853;28;20196;-80
2021/01/06 05:53:59;;;;;;;32.03;18.63;;;;;;;1.32;81.68;94800.50;5087407;28;20266;-80
2021/01/06 05:56:39;;;;;;;32.50;18.60;;;;;;;1.11;82.88;94802.44;5070167;28;20212;-80
2021/01/06 05:59:19;;;;;;;30.83;19.00;;;;;;;1.17;82.91;94805.19;5090053;28;20196;-80
2021/01/06 06:01:52;;;;;;;31.33;19.40;;;;;;;1.10;82.96;94805.91;5071536;28;20232;-78
2021/01/06 06:04:29;;;;;;;31.23;18.37;;;;;;;1.11;83.47;94800.72;5076591;28;20219;-80
2021/01/06 06:07:15;;;;;;;34.70;18.17;;;;;;;1.16;83.64;94805.34;5085624;28;20202;-79
2021/01/06 06:10:02;;;;;;;30.07;18.17;;;;;;;1.24;83.05;94801.19;5083253;28;20192;-80
2021/01/06 06:12:44;;;;;;;29.33;18.10;;;;;;;1.27;83.22;94803.44;5081164;28;20193;-80
2021/01/06 06:15:40;;;;;;;33.87;19.53;;;;;;;1.34;82.37;94806.25;5082078;28;20702;-81
2021/01/06 06:18:39;;;;;;;35.10;19.13;;;;;;;1.30;82.30;94805.72;5069561;28;20204;-80
2021/01/06 06:21:30;;;;;;;34.50;19.47;;;;;;;1.25;82.72;94807.84;5081175;28;20224;-80
2021/01/06 06:24:20;;;;;;;32.90;18.50;;;;;;;1.32;83.09;94810.66;5089462;28;20578;-80
2021/01/06 06:26:58;;;;;;;34.77;18.33;;;;;;;1.25;83.35;94809.59;5073477;28;20201;-80
2021/01/06 06:29:31;;;;;;;34.10;19.27;;;;;;;1.20;83.23;94811.75;5077881;28;20196;-82
2021/01/06 06:31:59;;;;;;;34.77;19.23;;;;;;;1.20;83.32;94814.28;5073022;28;20242;-80
2021/01/06 06:34:29;;;;;;;35.10;19.33;;;;;;;1.18;82.95;94811.88;5074523;28;20372;-80
2021/01/06 06:37:06;;;;;;;34.67;19.20;;;;;;;1.25;82.54;94812.13;5072696;28;20205;-80
2021/01/06 06:39:36;;;;;;;33.27;19.50;;;;;;;1.20;82.67;94820.13;5082172;28;20723;-80
2021/01/06 06:42:15;;;;;;;35.10;18.93;;;;;;;1.19;82.85;94822.81;5075564;28;20258;-80
2021/01/06 06:44:51;;;;;;;32.67;18.80;;;;;;;1.11;82.97;94818.44;5073446;28;20728;-80
2021/01/06 06:47:20;;;;;;;33.17;20.30;;;;;;;1.08;82.92;94813.66;5078148;28;20253;-80
2021/01/06 06:50:13;;;;;;;34.63;19.17;;;;;;;1.06;83.84;94825.66;5080874;28;20683;-80
2021/01/06 06:52:47;;;;;;;37.50;19.20;;;;;;;0.99;84.41;94822.06;5076349;28;20196;-79
2021/01/06 06:55:31;;;;;;;34.57;18.73;;;;;;;1.03;84.48;94825.94;5075425;28;20200;-81
2021/01/06 06:58:17;;;;;;;33.97;18.60;;;;;;;1.06;84.38;94823.13;5072336;28;20208;-81
2021/01/06 07:00:43;;;;;;;32.90;18.60;;;;;;;1.04;84.08;94822.47;5084944;28;20865;-81
2021/01/06 07:03:11;;;;;;;33.57;19.53;;;;;;;1.09;84.54;94832.19;5076397;28;20221;-81
2021/01/06 07:05:47;;;;;;;34.57;19.57;;;;;;;1.17;83.52;94833.09;5089749;28;20246;-81
2021/01/06 07:08:19;;;;;;;38.13;19.80;;;;;;;1.17;83.53;94833.09;5090017;28;20235;-80
2021/01/06 07:10:55;;;;;;;35.73;18.10;;;;;;;1.21;83.46;94839.50;5087617;28;20196;-81
2021/01/06 07:13:24;;;;;;;37.90;20.07;;;;;;;1.21;83.50;94838.69;5085727;28;20222;-79
2021/01/06 07:15:53;;;;;;;32.97;19.00;;;;;;;1.20;83.58;94842.16;5093185;28;20200;-80
2021/01/06 07:18:40;;;;;;;36.13;20.00;;;;;;;1.25;83.50;94833.22;5091345;28;20192;-79
2021/01/06 07:21:22;;;;;;;36.83;19.43;;;;;;;1.14;83.57;94840.19;5084725;28;20193;-80
2021/01/06 07:24:00;;;;;;;36.40;19.90;;;;;;;1.10;83.69;94843.94;5076568;28;20731;-81
2021/01/06 07:26:31;;;;;;;38.87;17.23;;;;;;;1.62;100.00;94850.16;5075276;28;20267;-81
2021/01/06 07:28:59;;;;;;;29.33;17.47;;;;;;;2.39;100.00;94850.53;5081277;28;20208;-79
2021/01/06 07:31:28;;;;;;;32.77;19.10;;;;;;;2.34;82.33;94847.63;5082622;28;20200;-82
2021/01/06 07:33:57;;;;;;;31.83;18.40;;;;;;;2.12;80.12;94844.72;5072519;28;20224;-81
2021/01/06 07:36:26;;;;;;;32.33;19.70;;;;;;;1.95;80.54;94852.13;5081940;28;20668;-79
2021/01/06 07:38:52;;;;;;;35.67;19.30;;;;;;;1.80;80.71;94855.28;5083275;28;20189;-80
2021/01/06 07:41:20;;;;;;;33.10;18.50;;;;;;;1.80;80.71;94853.56;5073673;28;20224;-81
2021/01/06 07:44:02;;;;;;;33.50;18.70;;;;;;;1.69;80.90;94862.16;5076863;28;20217;-80
2021/01/06 07:46:33;;;;;;;34.93;18.10;;;;;;;1.88;90.10;94856.19;5082397;28;20196;-81
2021/01/06 07:49:11;;;;;;;31.87;18.43;;;;;;;1.82;80.99;94864.38;5093695;28;20200;-81
2021/01/06 07:51:49;;;;;;;33.83;18.50;;;;;;;1.60;80.01;94859.66;5087830;28;20212;-79
2021/01/06 07:54:24;;;;;;;34.47;18.57;;;;;;;1.61;81.34;94868.84;5092802;28;20227;-82
2021/01/06 07:57:03;;;;;;;46.80;26.30;;;;;;;1.55;81.35;94871.94;5093005;28;20292;-80
2021/01/06 07:59:36;;;;;;;32.57;18.40;;;;;;;1.34;82.32;94875.50;5084908;28;20233;-80
2021/01/06 08:02:10;;;;;;;33.30;18.77;;;;;;;1.29;82.30;94875.09;5079643;28;20208;-81
2021/01/06 08:04:39;;;;;;;35.27;18.87;;;;;;;1.29;82.58;94874.31;5091976;28;20789;-81
2021/01/06 08:07:07;;;;;;;33.13;18.47;;;;;;;1.33;82.19;94871.38;5089921;28;20476;-81
2021/01/06 08:09:36;;;;;;;34.13;17.63;;;;;;;1.24;82.42;94873.91;5087344;28;20228;-80
2021/01/06 08:12:13;;;;;;;30.77;18.40;;;;;;;1.07;83.14;94883.00;5085262;28;20196;-81
2021/01/06 08:14:41;;;;;;;34.57;18.80;;;;;;;1.10;83.45;94875.16;5083619;28;20731;-79
2021/01/06 08:17:18;;;;;;;33.13;19.07;;;;;;;1.06;83.59;94881.41;5093128;28;20655;-81
2021/01/06 08:19:57;;;;;;;31.57;17.97;;;;;;;1.21;83.37;94882.59;5082518;28;20248;-80
2021/01/06 08:22:27;;;;;;;31.80;18.37;;;;;;;1.07;83.91;94877.94;5073274;28;20208;-81
2021/01/06 08:25:09;;;;;;;32.33;18.13;;;;;;;1.00;84.39;94874.34;5090165;28;20227;-80
2021/01/06 08:27:36;;;;;;;32.30;18.83;;;;;;;1.01;84.30;94884.34;5093262;28;20196;-81
2021/01/06 08:30:16;;;;;;;35.27;18.67;;;;;;;1.06;84.04;94885.69;5092933;28;20220;-81
2021/01/06 08:32:43;;;;;;;29.80;17.93;;;;;;;1.19;83.58;94883.66;5093009;28;20432;-81
2021/01/06 08:35:17;;;;;;;47.23;26.23;;;;;;;1.22;83.54;94886.72;5092324;28;20246;-79
2021/01/06 08:37:46;;;;;;;34.20;19.57;;;;;;;1.28;83.07;94888.72;5093622;28;20256;-80
2021/01/06 08:40:29;;;;;;;30.73;18.53;;;;;;;1.36;83.11;94895.63;5092535;28;20200;-81
2021/01/06 08:42:56;;;;;;;35.10;19.67;;;;;;;1.29;83.36;94889.53;5092204;28;20216;-80
2021/01/06 08:45:26;;;;;;;33.03;19.00;;;;;;;1.28;83.22;94891.25;5091467;28;20283;-81
2021/01/06 08:47:52;;;;;;;31.97;18.07;;;;;;;1.35;82.91;94896.56;5092485;28;20204;-81
2021/01/06 08:50:31;;;;;;;30.17;17.50;;;;;;;1.44;83.01;94893.22;5093266;28;20225;-81
2021/01/06 08:52:59;;;;;;;31.30;18.17;;;;;;;1.40;83.27;94891.88;5092803;28;20200;-80
2021/01/06 08:55:28;;;;;;;30.77;17.73;;;;;;;1.50;82.81;94896.94;5092332;28;20204;-81
2021/01/06 08:57:58;;;;;;;30.30;17.60;;;;;;;1.50;82.49;94891.88;5092753;28;20197;-79
2021/01/06 09:00:28;;;;;;;29.07;17.30;;;;;;;1.62;81.66;94895.81;5092680;28;20199;-80
2021/01/06 09:02:57;;;;;;;32.17;17.33;;;;;;;1.67;81.38;94886.06;5092193;28;20632;-81
2021/01/06 09:05:44;;;;;;;29.23;16.80;;;;;;;1.51;81.88;94896.00;5092039;28;20670;-81
2021/01/06 09:08:13;;;;;;;29.37;17.17;;;;;;;1.51;82.18;94893.47;5092372;28;20662;-80
2021/01/06 09:10:43;;;;;;;28.77;16.90;;;;;;;1.53;82.81;94902.53;5091398;28;21060;-80
2021/01/06 09:13:11;;;;;;;28.70;16.70;;;;;;;1.59;82.65;94906.25;5091906;28;20672;-81
2021/01/06 09:15:46;;;;;;;29.53;16.03;;;;;;;1.48;82.44;94909.75;5091914;28;20227;-81
2021/01/06 09:18:18;;;;;;;28.13;16.10;;;;;;;1.37;83.22;94905.63;5092942;28;20863;-80
2021/01/06 09:21:06;;;;;;;27.83;16.57;;;;;;;1.46;83.61;94913.38;5091437;28;20196;-80
2021/01/06 09:23:33;;;;;;;31.87;17.00;;;;;;;1.57;82.76;94914.00;5091542;28;20318;-81
2021/01/06 09:26:00;;;;;;;25.20;15.57;;;;;;;1.65;82.50;94923.47;5092128;28;20204;-80
2021/01/06 09:28:27;;;;;;;25.67;15.27;;;;;;;1.67;82.01;94921.59;5091845;28;20196;-81
2021/01/06 09:30:55;;;;;;;25.17;15.43;;;;;;;1.69;82.10;94922.25;5092903;28;20955;-80
2021/01/06 09:33:25;;;;;;;26.60;15.17;;;;;;;1.69;81.39;94927.31;5091354;28;20208;-81
2021/01/06 09:35:51;;;;;;;24.70;14.60;;;;;;;1.60;82.09;94925.59;5090837;28;20207;-81
2021/01/06 09:38:25;;;;;;;25.77;14.23;;;;;;;1.49;83.11;94928.31;5091855;28;20207;-80
2021/01/06 09:40:53;;;;;;;25.30;14.87;;;;;;;1.39;83.53;94929.13;5090870;28;20588;-79
2021/01/06 09:43:24;;;;;;;24.83;14.33;;;;;;;1.42;84.04;94933.13;5090979;28;20227;-80
2021/01/06 09:45:50;;;;;;;24.90;13.23;;;;;;;1.44;83.93;94933.78;5090726;28;20270;-81
2021/01/06 09:48:18;;;;;;;23.63;14.33;;;;;;;1.55;83.43;94931.06;5087949;28;20249;-82
2021/01/06 09:50:49;;;;;;;25.30;13.63;;;;;;;1.54;83.68;94941.38;5070799;28;20224;-81
2021/01/06 09:53:18;;;;;;;24.33;14.23;;;;;;;1.62;82.73;94936.41;5075419;28;20208;-80
2021/01/06 09:55:47;;;;;;;22.23;13.07;;;;;;;1.71;82.85;94935.59;5089339;28;20428;-80
2021/01/06 09:58:20;;;;;;;23.47;14.43;;;;;;;1.70;82.13;94941.59;5082499;28;20197;-80
2021/01/06 10:00:54;;;;;;;21.43;13.70;;;;;;;1.72;82.35;94939.75;5070927;28;20201;-81
2021/01/06 10:03:21;;;;;;;21.70;13.43;;;;;;;1.69;82.11;94934.94;5081269;28;20226;-80
2021/01/06 10:05:59;;;;;;;22.70;14.00;;;;;;;1.72;82.51;94930.38;5090539;28;20212;-80
2021/01/06 10:08:32;;;;;;;23.90;14.60;;;;;;;1.72;82.55;94934.66;5077643;28;20219;-80
2021/01/06 10:11:06;;;;;;;20.17;13.07;;;;;;;1.63;82.20;94938.00;5071016;28;20244;-80
2021/01/06 10:13:44;;;;;;;21.07;12.97;;;;;;;1.58;82.54;94930.81;5071280;28;20286;-80
2021/01/06 10:16:14;;;;;;;20.20;13.30;;;;;;;1.56;82.74;94935.22;5070895;28;20196;-81
2021/01/06 10:18:51;;;;;;;19.77;12.80;;;;;;;1.62;82.89;94932.13;5090375;28;20214;-81
2021/01/06 10:21:25;;;;;;;18.67;12.57;;;;;;;1.49;83.15;94924.03;5088552;28;20249;-81
2021/01/06 10:24:17;;;;;;;24.80;13.60;;;;;;;1.64;83.01;94922.66;5082299;28;20216;-81
2021/01/06 10:26:53;;;;;;;21.23;13.07;;;;;;;1.76;82.71;94919.94;5071471;28;20254;-81
2021/01/06 10:29:22;;;;;;;21.07;12.93;;;;;;;1.77;82.26;94929.94;5091030;28;20203;-80
2021/01/06 10:32:00;;;;;;;22.20;12.63;;;;;;;1.81;82.01;94927.94;5088414;28;20225;-81
2021/01/06 10:34:34;;;;;;;21.20;13.50;;;;;;;1.83;81.75;94923.53;5073849;28;20223;-81
2021/01/06 10:37:19;;;;;;;20.50;12.83;;;;;;;1.96;81.94;94924.81;5087631;28;20659;-81
2021/01/06 10:39:47;;;;;;;21.13;13.37;;;;;;;2.07;81.57;94916.22;5070576;28;20192;-80
2021/01/06 10:42:33;;;;;;;23.03;13.53;;;;;;;1.97;81.10;94916.25;5069645;28;20217;-80
2021/01/06 10:45:08;;;;;;;19.03;11.77;;;;;;;1.93;81.32;94924.28;5078057;28;20215;-81
2021/01/06 10:47:43;;;;;;;22.87;13.47;;;;;;;1.93;81.53;94916.66;5084319;28;20196;-81
2021/01/06 10:50:43;;;;;;;21.20;12.30;;;;;;;1.94;81.71;94918.25;5070251;28;20200;-79
2021/01/06 10:53:19;;;;;;;24.97;14.07;;;;;;;1.90;81.28;94919.50;5078116;28;20215;-79
2021/01/06 10:55:48;;;;;;;21.97;13.37;;;;;;;1.98;81.08;94922.13;5084528;28;20340;-80
2021/01/06 10:58:23;;;;;;;21.20;12.97;;;;;;;1.85;81.47;94919.91;5080191;28;20778;-81
2021/01/06 11:01:15;;;;;;;21.07;13.40;;;;;;;1.97;81.44;94911.16;5070748;28;20645;-81
2021/01/06 11:04:07;;;;;;;24.03;13.27;;;;;;;2.04;81.15;94916.50;5070929;28;20224;-81
2021/01/06 11:06:47;;;;;;;21.80;13.37;;;;;;;2.14;80.63;94917.22;5070706;28;20211;-80
2021/01/06 11:09:33;;;;;;;22.03;13.97;;;;;;;2.24;80.20;94920.53;5090904;28;20196;-81
2021/01/06 11:12:30;;;;;;;24.03;13.27;;;;;;;2.21;79.64;94918.28;5093421;28;20188;-81
2021/01/06 11:15:12;;;;;;;22.07;13.23;;;;;;;2.24;80.23;94923.06;5080758;28;20281;-79
2021/01/06 11:17:42;;;;;;;20.40;12.37;;;;;;;2.22;79.79;94926.69;5079621;28;20196;-80
2021/01/06 11:20:29;;;;;;;21.97;13.53;;;;;;;2.25;79.60;94916.25;5073021;28;20199;-80
2021/01/06 11:23:29;;;;;;;20.37;13.53;;;;;;;1.98;80.56;94924.66;5088257;28;20216;-80
2021/01/06 11:25:58;;;;;;;23.33;14.00;;;;;;;1.85;82.08;94919.13;5093718;28;20196;-80
2021/01/06 11:28:33;;;;;;;22.50;14.20;;;;;;;1.92;81.93;94915.88;5074345;28;20197;-81
2021/01/06 11:31:21;;;;;;;20.07;12.63;;;;;;;1.91;81.97;94913.50;5073348;28;20575;-81
2021/01/06 11:33:49;;;;;;;21.23;12.83;;;;;;;2.08;81.18;94912.75;5071856;28;20711;-80
2021/01/06 11:36:31;;;;;;;22.20;13.13;;;;;;;2.07;81.13;94908.59;5074778;28;20710;-80
2021/01/06 11:38:59;;;;;;;20.40;12.87;;;;;;;2.12;80.73;94913.25;5093162;28;20200;-80
2021/01/06 11:41:59;;;;;;;20.30;13.20;;;;;;;2.15;80.66;94911.22;5092514;28;20611;-81
2021/01/06 11:44:32;;;;;;;20.50;13.07;;;;;;;2.16;80.63;94907.75;5069450;28;20239;-81
2021/01/06 11:47:11;;;;;;;26.93;15.80;;;;;;;2.23;80.15;94913.06;5083747;28;20200;-79
2021/01/06 11:49:54;;;;;;;20.73;13.23;;;;;;;2.25;80.53;94901.03;5086159;28;20208;-79